sensor_id;sensor_type;location;lat;lon;timestamp;temperature;humidity
55211;DHT22;41082;52.822;6.666;2023-07-13T00:00:21;16.90;99.90
55211;DHT22;41082;52.822;6.666;2023-07-13T00:02:47;16.90;99.90
55211;DHT22;41082;52.822;6.666;2023-07-13T00:05:13;16.90;99.90
55211;DHT22;41082;52.822;6.666;2023-07-13T00:07:38;16.80;99.90
55211;DHT22;41082;52.822;6.666;2023-07-13T00:10:04;16.80;99.90
55211;DHT22;41082;52.822;6.666;2023-07-13T00:12:35;16.80;99.90
55211;DHT22;41082;52.822;6.666;2023-07-13T00:15:05;16.80;99.90
55211;DHT22;41082;52.822;6.666;2023-07-13T00:17:31;16.80;99.90
55211;DHT22;41082;52.822;6.666;2023-07-13T00:19:57;16.80;99.90
55211;DHT22;41082;52.822;6.666;2023-07-13T00:22:24;16.80;99.90
55211;DHT22;41082;52.822;6.666;2023-07-13T00:24:54;16.80;99.90
55211;DHT22;41082;52.822;6.666;2023-07-13T00:27:21;16.80;99.90
55211;DHT22;41082;52.822;6.666;2023-07-13T00:29:47;16.80;99.90
55211;DHT22;41082;52.822;6.666;2023-07-13T00:32:13;16.80;99.90
55211;DHT22;41082;52.822;6.666;2023-07-13T00:34:39;16.80;99.90
55211;DHT22;41082;52.822;6.666;2023-07-13T00:37:06;16.80;99.90
55211;DHT22;41082;52.822;6.666;2023-07-13T00:39:35;16.80;99.90
55211;DHT22;41082;52.822;6.666;2023-07-13T00:42:02;16.80;99.90
55211;DHT22;41082;52.822;6.666;2023-07-13T00:44:28;16.80;99.90
55211;DHT22;41082;52.822;6.666;2023-07-13T00:46:53;16.80;99.90
55211;DHT22;41082;52.822;6.666;2023-07-13T00:49:25;16.80;99.90
55211;DHT22;41082;52.822;6.666;2023-07-13T00:51:56;16.80;99.90
55211;DHT22;41082;52.822;6.666;2023-07-13T00:54:32;16.80;99.90
55211;DHT22;41082;52.822;6.666;2023-07-13T00:57:03;16.80;99.90
55211;DHT22;41082;52.822;6.666;2023-07-13T00:59:30;16.80;99.90
55211;DHT22;41082;52.822;6.666;2023-07-13T01:01:56;16.80;99.90
55211;DHT22;41082;52.822;6.666;2023-07-13T01:04:24;16.80;99.90
55211;DHT22;41082;52.822;6.666;2023-07-13T01:06:50;16.70;99.90
55211;DHT22;41082;52.822;6.666;2023-07-13T01:09:16;16.80;99.90
55211;DHT22;41082;52.822;6.666;2023-07-13T01:11:43;16.80;99.90
55211;DHT22;41082;52.822;6.666;2023-07-13T01:14:10;16.80;99.90
55211;DHT22;41082;52.822;6.666;2023-07-13T01:16:37;16.80;99.90
55211;DHT22;41082;52.822;6.666;2023-07-13T01:19:29;16.80;99.90
55211;DHT22;41082;52.822;6.666;2023-07-13T01:22:02;16.80;99.90
55211;DHT22;41082;52.822;6.666;2023-07-13T01:24:28;16.80;99.90
55211;DHT22;41082;52.822;6.666;2023-07-13T01:26:54;16.80;99.90
55211;DHT22;41082;52.822;6.666;2023-07-13T01:29:20;16.80;99.90
55211;DHT22;41082;52.822;6.666;2023-07-13T01:31:46;16.70;99.90
55211;DHT22;41082;52.822;6.666;2023-07-13T01:34:12;16.80;99.90
55211;DHT22;41082;52.822;6.666;2023-07-13T01:36:38;16.80;99.90
55211;DHT22;41082;52.822;6.666;2023-07-13T01:39:04;16.80;99.90
55211;DHT22;41082;52.822;6.666;2023-07-13T01:41:29;16.80;99.90
55211;DHT22;41082;52.822;6.666;2023-07-13T01:43:55;16.80;99.90
55211;DHT22;41082;52.822;6.666;2023-07-13T01:46:21;16.80;99.90
55211;DHT22;41082;52.822;6.666;2023-07-13T01:48:46;16.80;99.90
55211;DHT22;41082;52.822;6.666;2023-07-13T01:51:12;16.80;99.90
55211;DHT22;41082;52.822;6.666;2023-07-13T01:53:38;16.80;99.90
55211;DHT22;41082;52.822;6.666;2023-07-13T01:56:04;16.70;99.90
55211;DHT22;41082;52.822;6.666;2023-07-13T01:58:30;16.80;99.90
55211;DHT22;41082;52.822;6.666;2023-07-13T02:00:55;16.70;99.90
55211;DHT22;41082;52.822;6.666;2023-07-13T02:03:21;16.70;99.90
55211;DHT22;41082;52.822;6.666;2023-07-13T02:05:46;16.80;99.90
55211;DHT22;41082;52.822;6.666;2023-07-13T02:08:12;16.80;99.90
55211;DHT22;41082;52.822;6.666;2023-07-13T02:10:37;16.80;99.90
55211;DHT22;41082;52.822;6.666;2023-07-13T02:13:05;16.80;99.90
55211;DHT22;41082;52.822;6.666;2023-07-13T02:15:31;16.70;99.90
55211;DHT22;41082;52.822;6.666;2023-07-13T02:17:57;16.70;99.90
55211;DHT22;41082;52.822;6.666;2023-07-13T02:20:24;16.70;99.90
55211;DHT22;41082;52.822;6.666;2023-07-13T02:22:50;16.80;99.90
55211;DHT22;41082;52.822;6.666;2023-07-13T02:25:15;16.70;99.90
55211;DHT22;41082;52.822;6.666;2023-07-13T02:27:41;16.70;99.90
55211;DHT22;41082;52.822;6.666;2023-07-13T02:30:08;16.70;99.90
55211;DHT22;41082;52.822;6.666;2023-07-13T02:32:33;16.70;99.90
55211;DHT22;41082;52.822;6.666;2023-07-13T02:35:01;16.60;99.90
55211;DHT22;41082;52.822;6.666;2023-07-13T02:37:27;16.60;99.90
55211;DHT22;41082;52.822;6.666;2023-07-13T02:39:52;16.60;99.90
55211;DHT22;41082;52.822;6.666;2023-07-13T02:42:18;16.60;99.90
55211;DHT22;41082;52.822;6.666;2023-07-13T02:44:43;16.50;99.90
55211;DHT22;41082;52.822;6.666;2023-07-13T02:47:09;16.60;99.90
55211;DHT22;41082;52.822;6.666;2023-07-13T02:49:35;16.50;99.90
55211;DHT22;41082;52.822;6.666;2023-07-13T02:52:01;16.50;99.90
55211;DHT22;41082;52.822;6.666;2023-07-13T02:54:26;16.50;99.90
55211;DHT22;41082;52.822;6.666;2023-07-13T02:56:52;16.50;99.90
55211;DHT22;41082;52.822;6.666;2023-07-13T02:59:18;16.40;99.90
55211;DHT22;41082;52.822;6.666;2023-07-13T03:01:43;16.50;99.90
55211;DHT22;41082;52.822;6.666;2023-07-13T03:04:09;16.40;99.90
55211;DHT22;41082;52.822;6.666;2023-07-13T03:06:34;16.50;99.90
55211;DHT22;41082;52.822;6.666;2023-07-13T03:09:01;16.50;99.90
55211;DHT22;41082;52.822;6.666;2023-07-13T03:11:26;16.40;99.90
55211;DHT22;41082;52.822;6.666;2023-07-13T03:13:52;16.40;99.90
55211;DHT22;41082;52.822;6.666;2023-07-13T03:16:18;16.50;99.90
55211;DHT22;41082;52.822;6.666;2023-07-13T03:18:44;16.40;99.90
55211;DHT22;41082;52.822;6.666;2023-07-13T03:21:09;16.40;99.90
55211;DHT22;41082;52.822;6.666;2023-07-13T03:23:35;16.40;99.90
55211;DHT22;41082;52.822;6.666;2023-07-13T03:26:21;16.40;99.90
55211;DHT22;41082;52.822;6.666;2023-07-13T03:28:47;16.50;99.90
55211;DHT22;41082;52.822;6.666;2023-07-13T03:31:18;16.50;99.90
55211;DHT22;41082;52.822;6.666;2023-07-13T03:33:44;16.40;99.90
55211;DHT22;41082;52.822;6.666;2023-07-13T03:36:22;16.40;99.90
55211;DHT22;41082;52.822;6.666;2023-07-13T03:38:54;16.40;99.90
55211;DHT22;41082;52.822;6.666;2023-07-13T03:41:21;16.50;99.90
55211;DHT22;41082;52.822;6.666;2023-07-13T03:43:48;16.40;99.90
55211;DHT22;41082;52.822;6.666;2023-07-13T03:46:14;16.40;99.90
55211;DHT22;41082;52.822;6.666;2023-07-13T03:48:41;16.40;99.90
55211;DHT22;41082;52.822;6.666;2023-07-13T03:51:09;16.40;99.90
55211;DHT22;41082;52.822;6.666;2023-07-13T03:53:40;16.50;99.90
55211;DHT22;41082;52.822;6.666;2023-07-13T03:56:06;16.50;99.90
55211;DHT22;41082;52.822;6.666;2023-07-13T03:58:37;16.50;99.90
55211;DHT22;41082;52.822;6.666;2023-07-13T04:01:06;16.50;99.90
55211;DHT22;41082;52.822;6.666;2023-07-13T04:03:32;16.50;99.90
55211;DHT22;41082;52.822;6.666;2023-07-13T04:06:08;16.60;99.90
55211;DHT22;41082;52.822;6.666;2023-07-13T04:08:41;16.60;99.90
55211;DHT22;41082;52.822;6.666;2023-07-13T04:11:06;16.50;99.90
55211;DHT22;41082;52.822;6.666;2023-07-13T04:13:32;16.60;99.90
55211;DHT22;41082;52.822;6.666;2023-07-13T04:15:58;16.50;99.90
55211;DHT22;41082;52.822;6.666;2023-07-13T04:18:24;16.50;99.90
55211;DHT22;41082;52.822;6.666;2023-07-13T04:20:50;16.60;99.90
55211;DHT22;41082;52.822;6.666;2023-07-13T04:23:17;16.50;99.90
55211;DHT22;41082;52.822;6.666;2023-07-13T04:25:46;16.60;99.90
55211;DHT22;41082;52.822;6.666;2023-07-13T04:28:18;16.60;99.90
55211;DHT22;41082;52.822;6.666;2023-07-13T04:30:43;16.60;99.90
55211;DHT22;41082;52.822;6.666;2023-07-13T04:33:09;16.60;99.90
55211;DHT22;41082;52.822;6.666;2023-07-13T04:35:35;16.60;99.90
55211;DHT22;41082;52.822;6.666;2023-07-13T04:38:01;16.60;99.90
55211;DHT22;41082;52.822;6.666;2023-07-13T04:40:28;16.60;99.90
55211;DHT22;41082;52.822;6.666;2023-07-13T04:42:54;16.60;99.90
55211;DHT22;41082;52.822;6.666;2023-07-13T04:45:20;16.60;99.90
55211;DHT22;41082;52.822;6.666;2023-07-13T04:47:45;16.60;99.90
55211;DHT22;41082;52.822;6.666;2023-07-13T04:50:13;16.60;99.90
55211;DHT22;41082;52.822;6.666;2023-07-13T04:52:44;16.60;99.90
55211;DHT22;41082;52.822;6.666;2023-07-13T04:55:10;16.60;99.90
55211;DHT22;41082;52.822;6.666;2023-07-13T04:57:36;16.60;99.90
55211;DHT22;41082;52.822;6.666;2023-07-13T05:00:02;16.60;99.90
55211;DHT22;41082;52.822;6.666;2023-07-13T05:02:32;16.70;99.90
55211;DHT22;41082;52.822;6.666;2023-07-13T05:04:58;16.70;99.90
55211;DHT22;41082;52.822;6.666;2023-07-13T05:07:25;16.70;99.90
55211;DHT22;41082;52.822;6.666;2023-07-13T05:09:51;16.70;99.90
55211;DHT22;41082;52.822;6.666;2023-07-13T05:12:17;16.70;99.90
55211;DHT22;41082;52.822;6.666;2023-07-13T05:14:43;16.70;99.90
55211;DHT22;41082;52.822;6.666;2023-07-13T05:17:09;16.70;99.90
55211;DHT22;41082;52.822;6.666;2023-07-13T05:19:35;16.80;99.90
55211;DHT22;41082;52.822;6.666;2023-07-13T05:22:01;16.80;99.90
55211;DHT22;41082;52.822;6.666;2023-07-13T05:24:28;16.80;99.90
55211;DHT22;41082;52.822;6.666;2023-07-13T05:26:53;16.90;99.90
55211;DHT22;41082;52.822;6.666;2023-07-13T05:29:20;16.90;99.90
55211;DHT22;41082;52.822;6.666;2023-07-13T05:31:46;17.00;99.90
55211;DHT22;41082;52.822;6.666;2023-07-13T05:34:12;16.90;99.90
55211;DHT22;41082;52.822;6.666;2023-07-13T05:36:37;17.00;99.90
55211;DHT22;41082;52.822;6.666;2023-07-13T05:39:03;17.00;99.90
55211;DHT22;41082;52.822;6.666;2023-07-13T05:41:29;17.00;99.90
55211;DHT22;41082;52.822;6.666;2023-07-13T05:43:55;17.10;99.90
55211;DHT22;41082;52.822;6.666;2023-07-13T05:46:21;17.10;99.90
55211;DHT22;41082;52.822;6.666;2023-07-13T05:48:47;17.20;99.90
55211;DHT22;41082;52.822;6.666;2023-07-13T05:51:12;17.20;99.90
55211;DHT22;41082;52.822;6.666;2023-07-13T05:53:38;17.20;99.90
55211;DHT22;41082;52.822;6.666;2023-07-13T05:56:04;17.30;99.90
55211;DHT22;41082;52.822;6.666;2023-07-13T05:58:29;17.30;99.90
55211;DHT22;41082;52.822;6.666;2023-07-13T06:01:00;17.40;99.90
55211;DHT22;41082;52.822;6.666;2023-07-13T06:03:27;17.40;99.90
55211;DHT22;41082;52.822;6.666;2023-07-13T06:05:52;17.50;99.90
55211;DHT22;41082;52.822;6.666;2023-07-13T06:08:18;17.50;99.90
55211;DHT22;41082;52.822;6.666;2023-07-13T06:10:43;17.60;99.90
55211;DHT22;41082;52.822;6.666;2023-07-13T06:13:09;17.70;99.90
55211;DHT22;41082;52.822;6.666;2023-07-13T06:15:35;17.70;99.90
55211;DHT22;41082;52.822;6.666;2023-07-13T06:18:00;17.90;99.90
55211;DHT22;41082;52.822;6.666;2023-07-13T06:20:26;18.00;99.90
55211;DHT22;41082;52.822;6.666;2023-07-13T06:22:51;18.10;99.90
55211;DHT22;41082;52.822;6.666;2023-07-13T06:25:17;18.30;99.90
55211;DHT22;41082;52.822;6.666;2023-07-13T06:27:43;18.40;99.90
55211;DHT22;41082;52.822;6.666;2023-07-13T06:30:09;18.50;99.90
55211;DHT22;41082;52.822;6.666;2023-07-13T06:32:35;18.70;99.90
55211;DHT22;41082;52.822;6.666;2023-07-13T06:35:01;18.80;99.90
55211;DHT22;41082;52.822;6.666;2023-07-13T06:37:26;19.00;99.90
55211;DHT22;41082;52.822;6.666;2023-07-13T06:39:52;19.20;99.90
55211;DHT22;41082;52.822;6.666;2023-07-13T06:42:18;19.30;99.90
55211;DHT22;41082;52.822;6.666;2023-07-13T06:44:43;19.40;99.90
55211;DHT22;41082;52.822;6.666;2023-07-13T06:47:09;19.50;99.90
55211;DHT22;41082;52.822;6.666;2023-07-13T06:49:35;19.70;99.90
55211;DHT22;41082;52.822;6.666;2023-07-13T06:52:00;19.90;99.90
55211;DHT22;41082;52.822;6.666;2023-07-13T06:54:26;20.00;99.90
55211;DHT22;41082;52.822;6.666;2023-07-13T06:56:52;20.10;99.90
55211;DHT22;41082;52.822;6.666;2023-07-13T06:59:18;20.10;99.90
55211;DHT22;41082;52.822;6.666;2023-07-13T07:01:44;20.10;99.90
55211;DHT22;41082;52.822;6.666;2023-07-13T07:04:09;20.10;99.90
55211;DHT22;41082;52.822;6.666;2023-07-13T07:06:35;20.10;99.90
55211;DHT22;41082;52.822;6.666;2023-07-13T07:09:01;20.20;99.90
55211;DHT22;41082;52.822;6.666;2023-07-13T07:11:26;20.20;99.90
55211;DHT22;41082;52.822;6.666;2023-07-13T07:13:53;20.20;99.90
55211;DHT22;41082;52.822;6.666;2023-07-13T07:16:19;20.20;99.90
55211;DHT22;41082;52.822;6.666;2023-07-13T07:18:46;20.30;99.90
55211;DHT22;41082;52.822;6.666;2023-07-13T07:21:12;20.30;99.90
55211;DHT22;41082;52.822;6.666;2023-07-13T07:23:37;20.30;99.90
55211;DHT22;41082;52.822;6.666;2023-07-13T07:26:03;20.30;99.90
55211;DHT22;41082;52.822;6.666;2023-07-13T07:28:29;20.30;99.90
55211;DHT22;41082;52.822;6.666;2023-07-13T07:30:58;20.40;99.90
55211;DHT22;41082;52.822;6.666;2023-07-13T07:33:24;20.40;99.90
55211;DHT22;41082;52.822;6.666;2023-07-13T07:35:50;20.40;99.90
55211;DHT22;41082;52.822;6.666;2023-07-13T07:38:16;20.40;99.90
55211;DHT22;41082;52.822;6.666;2023-07-13T07:40:42;20.40;99.90
55211;DHT22;41082;52.822;6.666;2023-07-13T07:43:09;20.40;99.90
55211;DHT22;41082;52.822;6.666;2023-07-13T07:45:35;20.50;99.90
55211;DHT22;41082;52.822;6.666;2023-07-13T07:48:03;20.50;99.90
55211;DHT22;41082;52.822;6.666;2023-07-13T07:50:29;20.50;99.90
55211;DHT22;41082;52.822;6.666;2023-07-13T07:52:55;20.50;99.90
55211;DHT22;41082;52.822;6.666;2023-07-13T07:55:24;20.60;99.90
55211;DHT22;41082;52.822;6.666;2023-07-13T07:57:53;20.60;99.90
55211;DHT22;41082;52.822;6.666;2023-07-13T08:00:19;20.60;99.90
55211;DHT22;41082;52.822;6.666;2023-07-13T08:02:45;20.60;99.90
55211;DHT22;41082;52.822;6.666;2023-07-13T08:05:11;20.60;99.90
55211;DHT22;41082;52.822;6.666;2023-07-13T08:07:37;20.60;99.90
55211;DHT22;41082;52.822;6.666;2023-07-13T08:10:04;20.70;99.90
55211;DHT22;41082;52.822;6.666;2023-07-13T08:12:30;20.70;99.90
55211;DHT22;41082;52.822;6.666;2023-07-13T08:14:55;20.80;99.90
55211;DHT22;41082;52.822;6.666;2023-07-13T08:17:23;20.90;99.90
55211;DHT22;41082;52.822;6.666;2023-07-13T08:19:50;20.90;99.90
55211;DHT22;41082;52.822;6.666;2023-07-13T08:22:15;21.00;99.90
55211;DHT22;41082;52.822;6.666;2023-07-13T08:24:41;21.00;99.90
55211;DHT22;41082;52.822;6.666;2023-07-13T08:27:08;21.10;99.90
55211;DHT22;41082;52.822;6.666;2023-07-13T08:29:34;21.10;99.90
55211;DHT22;41082;52.822;6.666;2023-07-13T08:31:59;21.20;99.90
55211;DHT22;41082;52.822;6.666;2023-07-13T08:34:25;21.20;99.90
55211;DHT22;41082;52.822;6.666;2023-07-13T08:36:51;21.30;99.90
55211;DHT22;41082;52.822;6.666;2023-07-13T08:39:16;21.30;99.90
55211;DHT22;41082;52.822;6.666;2023-07-13T08:41:45;21.20;99.90
55211;DHT22;41082;52.822;6.666;2023-07-13T08:44:24;21.10;99.90
55211;DHT22;41082;52.822;6.666;2023-07-13T08:46:53;20.90;99.90
55211;DHT22;41082;52.822;6.666;2023-07-13T08:49:22;20.80;99.90
55211;DHT22;41082;52.822;6.666;2023-07-13T08:52:35;20.60;99.90
55211;DHT22;41082;52.822;6.666;2023-07-13T08:55:13;20.40;99.90
55211;DHT22;41082;52.822;6.666;2023-07-13T08:57:41;20.20;99.90
55211;DHT22;41082;52.822;6.666;2023-07-13T09:00:11;20.00;99.90
55211;DHT22;41082;52.822;6.666;2023-07-13T09:02:56;19.80;99.90
55211;DHT22;41082;52.822;6.666;2023-07-13T09:05:30;19.60;99.90
55211;DHT22;41082;52.822;6.666;2023-07-13T09:10:44;19.20;99.90
55211;DHT22;41082;52.822;6.666;2023-07-13T09:13:22;19.10;99.90
55211;DHT22;41082;52.822;6.666;2023-07-13T09:15:51;18.90;99.90
55211;DHT22;41082;52.822;6.666;2023-07-13T09:18:38;18.90;99.90
55211;DHT22;41082;52.822;6.666;2023-07-13T09:21:10;18.70;99.90
55211;DHT22;41082;52.822;6.666;2023-07-13T09:23:37;18.60;99.90
55211;DHT22;41082;52.822;6.666;2023-07-13T09:26:23;18.50;99.90
55211;DHT22;41082;52.822;6.666;2023-07-13T09:29:14;18.40;99.90
55211;DHT22;41082;52.822;6.666;2023-07-13T09:31:46;18.10;99.90
55211;DHT22;41082;52.822;6.666;2023-07-13T09:34:14;18.00;99.90
55211;DHT22;41082;52.822;6.666;2023-07-13T09:36:40;17.80;99.90
55211;DHT22;41082;52.822;6.666;2023-07-13T09:42:00;17.40;99.90
55211;DHT22;41082;52.822;6.666;2023-07-13T09:44:38;17.30;99.90
55211;DHT22;41082;52.822;6.666;2023-07-13T09:47:18;17.20;99.90
55211;DHT22;41082;52.822;6.666;2023-07-13T09:49:45;17.20;99.90
55211;DHT22;41082;52.822;6.666;2023-07-13T09:52:13;17.20;99.90
55211;DHT22;41082;52.822;6.666;2023-07-13T09:54:43;17.20;99.90
55211;DHT22;41082;52.822;6.666;2023-07-13T09:57:16;17.30;99.90
55211;DHT22;41082;52.822;6.666;2023-07-13T09:59:50;17.40;99.90
55211;DHT22;41082;52.822;6.666;2023-07-13T10:02:30;17.40;99.90
55211;DHT22;41082;52.822;6.666;2023-07-13T10:05:07;17.60;99.90
55211;DHT22;41082;52.822;6.666;2023-07-13T10:07:44;17.80;99.90
55211;DHT22;41082;52.822;6.666;2023-07-13T10:10:15;18.10;99.90
55211;DHT22;41082;52.822;6.666;2023-07-13T10:12:41;18.30;99.90
55211;DHT22;41082;52.822;6.666;2023-07-13T10:15:15;18.50;99.90
55211;DHT22;41082;52.822;6.666;2023-07-13T10:17:40;18.80;99.90
55211;DHT22;41082;52.822;6.666;2023-07-13T10:20:06;19.00;99.90
55211;DHT22;41082;52.822;6.666;2023-07-13T10:25:27;19.60;99.90
55211;DHT22;41082;52.822;6.666;2023-07-13T10:28:06;19.90;99.90
55211;DHT22;41082;52.822;6.666;2023-07-13T10:30:40;20.20;99.90
55211;DHT22;41082;52.822;6.666;2023-07-13T10:33:11;20.40;99.90
55211;DHT22;41082;52.822;6.666;2023-07-13T10:35:39;20.70;99.90
55211;DHT22;41082;52.822;6.666;2023-07-13T10:38:10;20.90;99.90
55211;DHT22;41082;52.822;6.666;2023-07-13T10:40:43;21.10;99.90
55211;DHT22;41082;52.822;6.666;2023-07-13T10:43:22;21.40;99.90
55211;DHT22;41082;52.822;6.666;2023-07-13T10:45:50;21.60;99.90
55211;DHT22;41082;52.822;6.666;2023-07-13T10:48:17;21.80;99.90
55211;DHT22;41082;52.822;6.666;2023-07-13T10:50:45;22.00;99.90
55211;DHT22;41082;52.822;6.666;2023-07-13T10:53:41;22.30;99.90
55211;DHT22;41082;52.822;6.666;2023-07-13T10:58:42;22.60;99.90
55211;DHT22;41082;52.822;6.666;2023-07-13T11:01:16;22.80;99.90
55211;DHT22;41082;52.822;6.666;2023-07-13T11:03:54;22.80;99.90
55211;DHT22;41082;52.822;6.666;2023-07-13T11:18:53;23.30;99.90
55211;DHT22;41082;52.822;6.666;2023-07-13T11:21:33;23.20;99.90
55211;DHT22;41082;52.822;6.666;2023-07-13T11:24:16;23.30;99.90
55211;DHT22;41082;52.822;6.666;2023-07-13T11:31:51;22.70;99.90
55211;DHT22;41082;52.822;6.666;2023-07-13T11:34:28;22.40;99.90
55211;DHT22;41082;52.822;6.666;2023-07-13T11:36:56;22.20;99.90
55211;DHT22;41082;52.822;6.666;2023-07-13T11:39:37;22.00;99.90
55211;DHT22;41082;52.822;6.666;2023-07-13T11:42:06;21.80;99.90
55211;DHT22;41082;52.822;6.666;2023-07-13T11:44:34;21.60;99.90
55211;DHT22;41082;52.822;6.666;2023-07-13T11:47:14;21.50;99.90
55211;DHT22;41082;52.822;6.666;2023-07-13T11:49:44;21.40;99.90
55211;DHT22;41082;52.822;6.666;2023-07-13T11:52:19;21.40;99.90
55211;DHT22;41082;52.822;6.666;2023-07-13T11:54:52;21.40;99.90
55211;DHT22;41082;52.822;6.666;2023-07-13T11:57:33;21.50;99.90
55211;DHT22;41082;52.822;6.666;2023-07-13T12:00:03;21.50;99.90
55211;DHT22;41082;52.822;6.666;2023-07-13T12:02:38;21.50;99.90
55211;DHT22;41082;52.822;6.666;2023-07-13T12:05:05;21.50;99.90
55211;DHT22;41082;52.822;6.666;2023-07-13T12:07:32;21.40;99.90
55211;DHT22;41082;52.822;6.666;2023-07-13T12:15:19;21.30;99.90
55211;DHT22;41082;52.822;6.666;2023-07-13T12:17:47;21.20;99.90
55211;DHT22;41082;52.822;6.666;2023-07-13T12:20:33;21.10;99.90
55211;DHT22;41082;52.822;6.666;2023-07-13T12:23:00;21.10;99.90
55211;DHT22;41082;52.822;6.666;2023-07-13T12:25:28;21.00;99.90
55211;DHT22;41082;52.822;6.666;2023-07-13T12:27:54;21.00;99.90
55211;DHT22;41082;52.822;6.666;2023-07-13T12:30:28;21.00;99.90
55211;DHT22;41082;52.822;6.666;2023-07-13T12:33:00;21.10;99.90
55211;DHT22;41082;52.822;6.666;2023-07-13T12:35:28;21.20;99.90
55211;DHT22;41082;52.822;6.666;2023-07-13T12:37:57;21.40;99.90
55211;DHT22;41082;52.822;6.666;2023-07-13T12:40:31;21.40;99.90
55211;DHT22;41082;52.822;6.666;2023-07-13T12:42:58;21.40;99.90
55211;DHT22;41082;52.822;6.666;2023-07-13T12:45:26;21.60;99.90
55211;DHT22;41082;52.822;6.666;2023-07-13T12:48:05;21.70;99.90
55211;DHT22;41082;52.822;6.666;2023-07-13T12:50:37;21.80;99.90
55211;DHT22;41082;52.822;6.666;2023-07-13T12:53:09;21.90;99.90
55211;DHT22;41082;52.822;6.666;2023-07-13T12:55:43;22.00;99.90
55211;DHT22;41082;52.822;6.666;2023-07-13T12:58:18;22.00;99.90
55211;DHT22;41082;52.822;6.666;2023-07-13T13:00:49;22.00;99.90
55211;DHT22;41082;52.822;6.666;2023-07-13T13:06:20;22.10;99.90
55211;DHT22;41082;52.822;6.666;2023-07-13T13:08:59;22.30;99.60
55211;DHT22;41082;52.822;6.666;2023-07-13T13:11:26;22.40;97.90
55211;DHT22;41082;52.822;6.666;2023-07-13T13:13:52;22.40;99.10
55211;DHT22;41082;52.822;6.666;2023-07-13T13:16:29;22.30;98.00
55211;DHT22;41082;52.822;6.666;2023-07-13T13:18:59;22.40;98.10
55211;DHT22;41082;52.822;6.666;2023-07-13T13:21:25;22.40;97.30
55211;DHT22;41082;52.822;6.666;2023-07-13T13:23:52;22.40;97.80
55211;DHT22;41082;52.822;6.666;2023-07-13T13:26:19;22.40;96.50
55211;DHT22;41082;52.822;6.666;2023-07-13T13:28:46;22.50;95.90
55211;DHT22;41082;52.822;6.666;2023-07-13T13:31:13;22.50;97.50
55211;DHT22;41082;52.822;6.666;2023-07-13T13:33:41;22.50;97.50
55211;DHT22;41082;52.822;6.666;2023-07-13T13:36:20;22.60;97.50
55211;DHT22;41082;52.822;6.666;2023-07-13T13:38:48;22.70;96.30
55211;DHT22;41082;52.822;6.666;2023-07-13T13:41:15;22.80;96.40
55211;DHT22;41082;52.822;6.666;2023-07-13T13:43:41;22.80;96.80
55211;DHT22;41082;52.822;6.666;2023-07-13T13:46:19;22.90;96.30
55211;DHT22;41082;52.822;6.666;2023-07-13T13:48:46;23.00;95.80
55211;DHT22;41082;52.822;6.666;2023-07-13T13:51:19;23.00;96.50
55211;DHT22;41082;52.822;6.666;2023-07-13T13:53:46;23.10;96.10
55211;DHT22;41082;52.822;6.666;2023-07-13T13:56:17;23.10;94.80
55211;DHT22;41082;52.822;6.666;2023-07-13T13:58:43;23.20;94.30
55211;DHT22;41082;52.822;6.666;2023-07-13T14:01:20;23.20;94.50
55211;DHT22;41082;52.822;6.666;2023-07-13T14:03:47;23.20;95.10
55211;DHT22;41082;52.822;6.666;2023-07-13T14:06:19;23.20;94.40
55211;DHT22;41082;52.822;6.666;2023-07-13T14:08:45;23.30;94.40
55211;DHT22;41082;52.822;6.666;2023-07-13T14:11:15;23.30;92.20
55211;DHT22;41082;52.822;6.666;2023-07-13T14:13:45;23.30;93.50
55211;DHT22;41082;52.822;6.666;2023-07-13T14:16:17;23.40;94.50
55211;DHT22;41082;52.822;6.666;2023-07-13T14:18:44;23.50;94.50
55211;DHT22;41082;52.822;6.666;2023-07-13T14:21:15;23.60;94.70
55211;DHT22;41082;52.822;6.666;2023-07-13T14:23:40;23.70;93.40
55211;DHT22;41082;52.822;6.666;2023-07-13T14:26:19;23.80;93.50
55211;DHT22;41082;52.822;6.666;2023-07-13T14:28:47;23.80;93.40
55211;DHT22;41082;52.822;6.666;2023-07-13T14:31:15;24.00;93.50
55211;DHT22;41082;52.822;6.666;2023-07-13T14:33:41;24.00;93.50
55211;DHT22;41082;52.822;6.666;2023-07-13T14:36:29;24.20;92.80
55211;DHT22;41082;52.822;6.666;2023-07-13T14:38:57;24.30;91.40
55211;DHT22;41082;52.822;6.666;2023-07-13T14:41:23;24.40;91.10
55211;DHT22;41082;52.822;6.666;2023-07-13T14:43:49;24.50;90.80
55211;DHT22;41082;52.822;6.666;2023-07-13T14:46:28;24.60;91.80
55211;DHT22;41082;52.822;6.666;2023-07-13T14:49:04;24.60;91.80
55211;DHT22;41082;52.822;6.666;2023-07-13T14:51:31;24.50;91.60
55211;DHT22;41082;52.822;6.666;2023-07-13T14:54:00;24.60;91.00
55211;DHT22;41082;52.822;6.666;2023-07-13T14:56:26;24.50;90.40
55211;DHT22;41082;52.822;6.666;2023-07-13T14:58:52;24.40;90.30
55211;DHT22;41082;52.822;6.666;2023-07-13T15:01:19;24.20;90.40
55211;DHT22;41082;52.822;6.666;2023-07-13T15:03:47;24.10;90.70
55211;DHT22;41082;52.822;6.666;2023-07-13T15:06:13;24.00;90.80
55211;DHT22;41082;52.822;6.666;2023-07-13T15:08:40;23.90;90.70
55211;DHT22;41082;52.822;6.666;2023-07-13T15:11:09;23.80;90.90
55211;DHT22;41082;52.822;6.666;2023-07-13T15:13:38;23.80;91.20
55211;DHT22;41082;52.822;6.666;2023-07-13T15:16:10;23.80;90.80
55211;DHT22;41082;52.822;6.666;2023-07-13T15:18:39;23.80;91.00
55211;DHT22;41082;52.822;6.666;2023-07-13T15:21:10;23.90;91.40
55211;DHT22;41082;52.822;6.666;2023-07-13T15:23:36;24.00;91.40
55211;DHT22;41082;52.822;6.666;2023-07-13T15:26:01;24.00;91.00
55211;DHT22;41082;52.822;6.666;2023-07-13T15:28:28;24.20;90.90
55211;DHT22;41082;52.822;6.666;2023-07-13T15:30:54;24.50;90.50
55211;DHT22;41082;52.822;6.666;2023-07-13T15:33:24;25.20;90.10
55211;DHT22;41082;52.822;6.666;2023-07-13T15:35:50;25.90;87.70
55211;DHT22;41082;52.822;6.666;2023-07-13T15:38:21;26.50;85.20
55211;DHT22;41082;52.822;6.666;2023-07-13T15:40:48;27.00;83.40
55211;DHT22;41082;52.822;6.666;2023-07-13T15:43:15;27.60;81.00
55211;DHT22;41082;52.822;6.666;2023-07-13T15:45:41;28.20;78.50
55211;DHT22;41082;52.822;6.666;2023-07-13T15:48:22;28.60;77.00
55211;DHT22;41082;52.822;6.666;2023-07-13T15:50:51;29.10;74.60
55211;DHT22;41082;52.822;6.666;2023-07-13T15:53:29;29.50;72.90
55211;DHT22;41082;52.822;6.666;2023-07-13T15:55:57;29.80;68.40
55211;DHT22;41082;52.822;6.666;2023-07-13T15:58:23;30.00;66.10
55211;DHT22;41082;52.822;6.666;2023-07-13T16:00:51;30.10;64.10
55211;DHT22;41082;52.822;6.666;2023-07-13T16:03:17;30.20;62.20
55211;DHT22;41082;52.822;6.666;2023-07-13T16:05:44;30.30;61.70
55211;DHT22;41082;52.822;6.666;2023-07-13T16:08:31;30.30;62.20
55211;DHT22;41082;52.822;6.666;2023-07-13T16:10:59;30.40;62.00
55211;DHT22;41082;52.822;6.666;2023-07-13T16:13:25;30.50;61.10
55211;DHT22;41082;52.822;6.666;2023-07-13T16:15:52;30.60;60.00